createdAt,value
2018-11-07T00:01:20.597Z,99905.00
2018-11-07T00:03:48.805Z,99896.00
2018-11-07T00:06:16.868Z,99891.00
2018-11-07T00:08:45.660Z,99890.00
2018-11-07T00:11:13.782Z,99893.00
2018-11-07T00:13:42.128Z,99898.00
2018-11-07T00:16:10.260Z,99907.00
2018-11-07T00:18:38.399Z,99898.00
2018-11-07T00:21:06.641Z,99889.00
2018-11-07T00:23:34.780Z,99898.00
2018-11-07T00:26:03.142Z,99895.00
2018-11-07T00:28:31.271Z,99900.00
2018-11-07T00:30:59.453Z,99895.00
2018-11-07T00:33:27.856Z,99896.00
2018-11-07T00:35:58.393Z,99898.00
2018-11-07T00:38:27.137Z,99903.00
2018-11-07T00:40:56.959Z,99894.00
2018-11-07T00:43:25.445Z,99886.00
2018-11-07T00:45:53.547Z,99894.00
2018-11-07T00:48:21.664Z,99890.00
2018-11-07T00:50:49.747Z,99897.00
2018-11-07T00:53:17.966Z,99895.00
2018-11-07T00:55:46.059Z,99889.00
2018-11-07T00:58:14.278Z,99895.00
2018-11-07T01:00:42.351Z,99896.00
2018-11-07T01:03:10.457Z,99891.00
2018-11-07T01:05:38.577Z,99897.00
2018-11-07T01:08:06.737Z,99897.00
2018-11-07T01:10:34.975Z,99909.00
2018-11-07T01:13:03.128Z,99896.00
2018-11-07T01:15:31.658Z,99897.00
2018-11-07T01:18:00.136Z,99891.00
2018-11-07T01:20:28.606Z,99886.00
2018-11-07T01:22:57.139Z,99883.00
2018-11-07T01:25:25.600Z,99891.00
2018-11-07T01:27:53.863Z,99892.00
2018-11-07T01:30:22.773Z,99895.00
2018-11-07T01:32:51.039Z,99906.00
2018-11-07T01:35:19.996Z,99905.00
2018-11-07T01:37:48.172Z,99909.00
2018-11-07T01:40:16.454Z,99906.00
2018-11-07T01:42:44.548Z,99898.00
2018-11-07T01:45:12.956Z,99911.00
2018-11-07T01:47:58.338Z,99899.00
2018-11-07T01:50:26.466Z,99916.00
2018-11-07T01:52:54.493Z,99910.00
2018-11-07T01:55:22.556Z,99915.00
2018-11-07T01:57:50.639Z,99912.00
2018-11-07T02:00:18.731Z,99910.00
2018-11-07T02:02:46.865Z,99905.00
2018-11-07T02:05:15.298Z,99901.00
2018-11-07T02:07:43.350Z,99906.00
2018-11-07T02:10:11.449Z,99908.00
2018-11-07T02:12:40.290Z,99912.00
2018-11-07T02:15:09.226Z,99910.00
2018-11-07T02:17:37.455Z,99909.00
2018-11-07T02:20:07.729Z,99904.00
2018-11-07T02:22:36.002Z,99902.00
2018-11-07T02:25:04.693Z,99905.00
2018-11-07T02:27:32.837Z,99907.00
2018-11-07T02:30:01.082Z,99900.00
2018-11-07T02:32:29.168Z,99898.00
2018-11-07T02:34:57.255Z,99906.00
2018-11-07T02:37:25.364Z,99904.00
2018-11-07T02:39:53.424Z,99899.00
2018-11-07T02:42:21.469Z,99892.00
2018-11-07T02:44:49.582Z,99894.00
2018-11-07T02:47:17.656Z,99909.00
2018-11-07T02:49:45.704Z,99907.00
2018-11-07T02:52:13.914Z,99902.00
2018-11-07T02:54:42.140Z,99897.00
2018-11-07T02:57:10.209Z,99899.00
2018-11-07T02:59:38.331Z,99896.00
2018-11-07T03:02:06.499Z,99898.00
2018-11-07T03:04:34.702Z,99898.00
2018-11-07T03:07:02.751Z,99890.00
2018-11-07T03:09:30.794Z,99899.00
2018-11-07T03:11:58.888Z,99904.00
2018-11-07T03:14:26.967Z,99907.00
2018-11-07T03:16:55.052Z,99912.00
2018-11-07T03:19:23.212Z,99907.00
2018-11-07T03:21:51.366Z,99918.00
2018-11-07T03:24:19.411Z,99912.00
2018-11-07T03:26:47.468Z,99909.00
2018-11-07T03:29:15.535Z,99921.00
2018-11-07T03:31:43.796Z,99914.00
2018-11-07T03:34:12.100Z,99919.00
2018-11-07T03:36:40.340Z,99925.00
2018-11-07T03:39:10.363Z,99926.00
2018-11-07T03:41:38.680Z,99922.00
2018-11-07T03:44:08.500Z,99913.00
2018-11-07T03:46:36.546Z,99911.00
2018-11-07T03:49:05.338Z,99914.00
2018-11-07T03:51:33.425Z,99914.00
2018-11-07T03:54:01.622Z,99918.00
2018-11-07T03:56:29.771Z,99913.00
2018-11-07T03:58:57.813Z,99916.00
2018-11-07T04:01:25.847Z,99914.00
2018-11-07T04:03:54.437Z,99905.00
2018-11-07T04:06:22.662Z,99900.00
2018-11-07T04:08:50.703Z,99908.00
2018-11-07T04:11:18.752Z,99912.00
2018-11-07T04:13:47.100Z,99910.00
2018-11-07T04:16:15.240Z,99911.00
2018-11-07T04:18:43.373Z,99906.00
2018-11-07T04:21:11.483Z,99917.00
2018-11-07T04:23:39.676Z,99918.00
2018-11-07T04:26:07.807Z,99914.00
2018-11-07T04:28:35.898Z,99916.00
2018-11-07T04:31:03.984Z,99917.00
2018-11-07T04:33:32.018Z,99913.00
2018-11-07T04:36:00.353Z,99916.00
2018-11-07T04:38:28.419Z,99911.00
2018-11-07T04:40:57.155Z,99913.00
2018-11-07T04:43:25.206Z,99927.00
2018-11-07T04:45:53.320Z,99935.00
2018-11-07T04:48:21.406Z,99930.00
2018-11-07T04:50:49.495Z,99923.00
2018-11-07T04:53:17.720Z,99930.00
2018-11-07T04:55:45.891Z,99922.00
2018-11-07T04:58:14.005Z,99925.00
2018-11-07T05:00:42.173Z,99929.00
2018-11-07T05:03:10.245Z,99928.00
2018-11-07T05:05:38.378Z,99918.00
2018-11-07T05:08:06.481Z,99913.00
2018-11-07T05:10:34.515Z,99922.00
2018-11-07T05:13:02.561Z,99905.00
2018-11-07T05:15:30.634Z,99909.00
2018-11-07T05:17:58.854Z,99927.00
2018-11-07T05:20:26.919Z,99935.00
2018-11-07T05:22:55.162Z,99931.00
2018-11-07T05:25:23.365Z,99931.00
2018-11-07T05:27:51.592Z,99931.00
2018-11-07T05:30:19.657Z,99925.00
2018-11-07T05:32:48.032Z,99920.00
2018-11-07T05:35:16.148Z,99930.00
2018-11-07T05:37:44.322Z,99931.00
2018-11-07T05:40:12.489Z,99939.00
2018-11-07T05:42:40.604Z,99948.00
2018-11-07T05:45:08.760Z,99950.00
2018-11-07T05:47:36.954Z,99954.00
2018-11-07T05:50:06.423Z,99955.00
2018-11-07T05:52:34.724Z,99949.00
2018-11-07T05:55:02.983Z,99959.00
2018-11-07T05:57:31.087Z,99967.00
2018-11-07T05:59:59.345Z,99954.00
2018-11-07T06:02:27.466Z,99951.00
2018-11-07T06:04:55.741Z,99959.00
2018-11-07T06:07:23.898Z,99953.00
2018-11-07T06:09:52.241Z,99953.00
2018-11-07T06:12:20.542Z,99953.00
2018-11-07T06:14:48.636Z,99966.00
2018-11-07T06:17:16.680Z,99968.00
2018-11-07T06:19:44.824Z,99975.00
2018-11-07T06:22:12.943Z,99981.00
2018-11-07T06:24:41.084Z,99980.00
2018-11-07T06:27:09.157Z,99967.00
2018-11-07T06:29:37.371Z,99972.00
2018-11-07T06:32:05.581Z,99981.00
2018-11-07T06:34:33.736Z,99977.00
2018-11-07T06:37:01.820Z,99979.00
2018-11-07T06:39:29.971Z,99989.00
2018-11-07T06:41:58.126Z,99979.00
2018-11-07T06:44:26.301Z,99980.00
2018-11-07T06:46:54.483Z,99980.00
2018-11-07T06:49:22.548Z,99982.00
2018-11-07T06:51:50.732Z,99983.00
2018-11-07T06:54:18.879Z,99987.00
2018-11-07T06:56:46.984Z,99989.00
2018-11-07T06:59:15.028Z,99989.00
2018-11-07T07:01:43.195Z,99997.00
2018-11-07T07:04:11.355Z,99983.00
2018-11-07T07:06:39.496Z,99982.00
2018-11-07T07:09:08.870Z,99983.00
2018-11-07T07:11:37.093Z,99980.00
2018-11-07T07:14:05.304Z,99980.00
2018-11-07T07:16:34.916Z,99970.00
2018-11-07T07:19:03.141Z,99977.00
2018-11-07T07:21:31.615Z,99966.00
2018-11-07T07:23:59.848Z,99975.00
2018-11-07T07:26:28.063Z,99970.00
2018-11-07T07:28:56.478Z,99978.00
2018-11-07T07:31:24.631Z,99984.00
2018-11-07T07:33:52.742Z,99979.00
2018-11-07T07:36:20.968Z,99982.00
2018-11-07T07:38:49.180Z,99991.00
2018-11-07T07:41:17.307Z,99989.00
2018-11-07T07:43:45.466Z,99992.00
2018-11-07T07:46:13.632Z,100003.00
2018-11-07T07:48:42.432Z,100001.00
2018-11-07T07:51:10.634Z,99995.00
2018-11-07T07:53:38.761Z,99994.00
2018-11-07T07:56:06.893Z,99987.00
2018-11-07T07:58:35.147Z,99991.00
2018-11-07T08:01:03.560Z,99991.00
2018-11-07T08:03:31.764Z,99984.00
2018-11-07T08:06:00.086Z,99995.00
2018-11-07T08:08:28.949Z,99995.00
2018-11-07T08:10:57.063Z,99993.00
2018-11-07T08:13:25.263Z,99994.00
2018-11-07T08:15:53.395Z,99995.00
2018-11-07T08:18:21.493Z,99993.00
2018-11-07T08:20:49.611Z,99995.00
2018-11-07T08:23:17.820Z,99994.00
2018-11-07T08:25:46.058Z,99993.00
2018-11-07T08:28:14.206Z,99982.00
2018-11-07T08:30:42.332Z,99985.00
2018-11-07T08:33:10.494Z,99984.00
2018-11-07T08:35:38.707Z,99988.00
2018-11-07T08:38:07.016Z,99988.00
2018-11-07T08:40:35.172Z,99989.00
2018-11-07T08:43:03.871Z,99978.00
2018-11-07T08:45:32.045Z,99990.00
2018-11-07T08:48:00.206Z,99982.00
2018-11-07T08:50:35.099Z,99975.00
2018-11-07T08:53:03.425Z,99984.00
2018-11-07T08:55:31.594Z,99975.00
2018-11-07T08:57:59.649Z,99978.00
2018-11-07T09:00:27.842Z,99975.00
2018-11-07T09:02:55.955Z,99978.00
2018-11-07T09:05:24.028Z,99975.00
2018-11-07T09:07:52.194Z,99981.00
2018-11-07T09:10:21.721Z,99981.00
2018-11-07T09:12:49.932Z,99972.00
2018-11-07T09:15:19.175Z,99980.00
2018-11-07T09:17:47.358Z,99979.00
2018-11-07T09:20:20.052Z,99977.00
2018-11-07T09:22:48.257Z,99974.00
2018-11-07T09:25:16.668Z,99987.00
2018-11-07T09:27:45.506Z,99982.00
2018-11-07T09:30:16.648Z,99973.00
2018-11-07T09:32:44.921Z,99983.00
2018-11-07T09:35:13.949Z,99981.00
2018-11-07T09:37:42.014Z,99975.00
2018-11-07T09:40:13.218Z,99984.00
2018-11-07T09:42:41.893Z,99981.00
2018-11-07T09:45:11.948Z,99972.00
2018-11-07T09:47:41.038Z,99980.00
2018-11-07T09:50:11.151Z,99985.00
2018-11-07T09:52:39.592Z,99987.00
2018-11-07T09:55:10.781Z,99982.00
2018-11-07T09:57:39.224Z,99990.00
2018-11-07T10:00:10.379Z,99987.00
2018-11-07T10:02:39.052Z,99986.00
2018-11-07T10:05:08.252Z,99992.00
2018-11-07T10:07:36.952Z,99986.00
2018-11-07T10:10:10.344Z,99987.00
2018-11-07T10:12:39.249Z,99992.00
2018-11-07T10:15:08.690Z,99986.00
2018-11-07T10:17:37.200Z,99985.00
2018-11-07T10:20:11.677Z,99985.00
2018-11-07T10:22:40.092Z,99985.00
2018-11-07T10:25:08.744Z,99975.00
2018-11-07T10:27:37.321Z,99969.00
2018-11-07T10:30:08.144Z,99970.00
2018-11-07T10:32:36.033Z,99967.00
2018-11-07T10:35:05.400Z,99961.00
2018-11-07T10:37:33.630Z,99966.00
2018-11-07T10:40:02.061Z,99969.00
2018-11-07T10:42:30.287Z,99957.00
2018-11-07T10:44:58.407Z,99954.00
2018-11-07T10:47:26.509Z,99951.00
2018-11-07T10:49:54.815Z,99955.00
2018-11-07T10:52:22.973Z,99951.00
2018-11-07T10:54:51.098Z,99951.00
2018-11-07T10:57:19.399Z,99949.00
2018-11-07T10:59:47.535Z,99945.00
2018-11-07T11:02:21.332Z,99950.00
2018-11-07T11:04:49.467Z,99944.00
2018-11-07T11:07:17.913Z,99952.00
2018-11-07T11:09:46.103Z,99944.00
2018-11-07T11:12:14.249Z,99948.00
2018-11-07T11:14:42.758Z,99943.00
2018-11-07T11:17:10.955Z,99937.00
2018-11-07T11:19:39.027Z,99949.00
2018-11-07T11:22:08.063Z,99922.00
2018-11-07T11:24:36.272Z,99947.00
2018-11-07T11:27:05.083Z,99942.00
2018-11-07T11:29:33.196Z,99936.00
2018-11-07T11:32:01.282Z,99941.00
2018-11-07T11:34:29.706Z,99935.00
2018-11-07T11:36:57.863Z,99943.00
2018-11-07T11:39:26.090Z,99934.00
2018-11-07T11:41:54.439Z,99932.00
2018-11-07T11:44:22.723Z,99936.00
2018-11-07T11:46:50.979Z,99932.00
2018-11-07T11:49:19.212Z,99926.00
2018-11-07T11:51:47.372Z,99928.00
2018-11-07T11:54:16.381Z,99924.00
2018-11-07T11:56:44.647Z,99917.00
2018-11-07T11:59:12.993Z,99876.00
2018-11-07T12:01:40.996Z,99927.00
2018-11-07T12:04:09.116Z,99920.00
2018-11-07T12:06:37.206Z,99923.00
2018-11-07T12:09:07.561Z,99927.00
2018-11-07T12:11:35.878Z,99929.00
2018-11-07T12:14:04.261Z,99922.00
2018-11-07T12:16:32.464Z,99933.00
2018-11-07T12:19:00.657Z,99928.00
2018-11-07T12:21:28.843Z,99923.00
2018-11-07T12:23:57.298Z,99924.00
2018-11-07T12:26:25.532Z,99919.00
2018-11-07T12:28:53.670Z,99918.00
2018-11-07T12:31:21.876Z,99914.00
2018-11-07T12:33:50.025Z,99915.00
2018-11-07T12:36:18.232Z,99922.00
2018-11-07T12:38:46.371Z,99914.00
2018-11-07T12:41:14.537Z,99923.00
2018-11-07T12:43:42.731Z,99916.00
2018-11-07T12:46:10.989Z,99923.00
2018-11-07T12:48:39.172Z,99923.00
2018-11-07T12:51:07.336Z,99924.00
2018-11-07T12:53:35.429Z,99915.00
2018-11-07T12:56:03.714Z,99920.00
2018-11-07T12:58:31.931Z,99916.00
2018-11-07T13:01:00.016Z,99922.00
2018-11-07T13:03:28.514Z,99923.00
2018-11-07T13:05:56.993Z,99911.00
2018-11-07T13:08:25.291Z,99915.00
2018-11-07T13:10:53.371Z,99917.00
2018-11-07T13:13:21.447Z,99918.00
2018-11-07T13:15:49.636Z,99918.00
2018-11-07T13:18:17.728Z,99916.00
2018-11-07T13:20:45.829Z,99918.00
2018-11-07T13:23:13.948Z,99927.00
2018-11-07T13:25:42.096Z,99927.00
2018-11-07T13:28:10.265Z,99934.00
2018-11-07T13:30:38.351Z,99929.00
2018-11-07T13:33:06.550Z,99935.00
2018-11-07T13:35:35.917Z,99935.00
2018-11-07T13:38:04.413Z,99928.00
2018-11-07T13:40:32.592Z,99932.00
2018-11-07T13:43:00.858Z,99925.00
2018-11-07T13:45:29.033Z,99925.00
2018-11-07T13:47:57.191Z,99920.00
2018-11-07T13:50:25.389Z,99922.00
2018-11-07T13:52:53.588Z,99929.00
2018-11-07T13:55:21.727Z,99921.00
2018-11-07T13:57:49.855Z,99916.00
2018-11-07T14:00:20.418Z,99933.00
2018-11-07T14:02:49.069Z,99940.00
2018-11-07T14:05:17.385Z,99937.00
2018-11-07T14:07:45.586Z,99944.00
2018-11-07T14:10:20.325Z,99943.00
2018-11-07T14:12:48.710Z,99945.00
2018-11-07T14:15:16.984Z,99941.00
2018-11-07T14:17:45.352Z,99946.00
2018-11-07T14:20:13.549Z,99945.00
2018-11-07T14:22:41.771Z,99951.00
2018-11-07T14:25:11.131Z,99945.00
2018-11-07T14:27:39.592Z,99952.00
2018-11-07T14:30:10.142Z,99958.00
2018-11-07T14:32:46.702Z,99958.00
2018-11-07T14:35:14.924Z,99954.00
2018-11-07T14:37:49.669Z,99964.00
2018-11-07T14:40:17.899Z,99970.00
2018-11-07T14:42:46.045Z,99969.00
2018-11-07T14:45:14.301Z,99963.00
2018-11-07T14:47:42.937Z,99937.00
2018-11-07T14:50:12.175Z,99977.00
2018-11-07T14:52:40.476Z,99977.00
2018-11-07T14:55:09.703Z,99976.00
2018-11-07T14:57:38.171Z,99981.00
2018-11-07T15:00:11.266Z,99977.00
2018-11-07T15:02:40.459Z,99981.00
2018-11-07T15:05:10.172Z,99980.00
2018-11-07T15:07:38.733Z,99986.00
2018-11-07T15:10:09.082Z,99993.00
2018-11-07T15:12:37.575Z,99988.00
2018-11-07T15:15:08.352Z,99996.00
2018-11-07T15:17:36.804Z,99996.00
2018-11-07T15:20:06.030Z,100002.00
2018-11-07T15:22:34.329Z,100001.00
2018-11-07T15:25:02.538Z,100007.00
2018-11-07T15:27:30.774Z,100012.00
2018-11-07T15:29:59.061Z,100009.00
2018-11-07T15:32:27.321Z,100013.00
2018-11-07T15:34:55.496Z,100013.00
2018-11-07T15:37:23.813Z,100015.00
2018-11-07T15:39:51.963Z,100011.00
2018-11-07T15:42:20.049Z,100014.00
2018-11-07T15:44:48.348Z,100020.00
2018-11-07T15:47:16.647Z,100017.00
2018-11-07T15:49:50.697Z,100021.00
2018-11-07T15:52:18.816Z,100023.00
2018-11-07T15:54:47.063Z,100021.00
2018-11-07T15:57:15.305Z,100020.00
2018-11-07T15:59:43.565Z,100027.00
2018-11-07T16:02:11.895Z,100026.00
2018-11-07T16:04:40.194Z,100038.00
2018-11-07T16:07:08.358Z,100037.00
2018-11-07T16:09:36.586Z,100041.00
2018-11-07T16:12:05.332Z,100046.00
2018-11-07T16:14:33.774Z,100046.00
2018-11-07T16:17:02.020Z,100037.00
2018-11-07T16:19:30.309Z,100033.00
2018-11-07T16:21:58.693Z,100035.00
2018-11-07T16:24:26.911Z,100029.00
2018-11-07T16:26:55.286Z,100031.00
2018-11-07T16:29:23.521Z,100039.00
2018-11-07T16:31:51.816Z,100035.00
2018-11-07T16:34:20.143Z,100043.00
2018-11-07T16:36:48.474Z,100049.00
2018-11-07T16:39:16.692Z,100044.00
2018-11-07T16:41:45.118Z,100053.00
2018-11-07T16:44:14.098Z,100049.00
2018-11-07T16:46:42.436Z,100062.00
2018-11-07T16:49:10.645Z,100064.00
2018-11-07T16:51:38.961Z,100065.00
2018-11-07T16:54:09.648Z,100066.00
2018-11-07T16:56:37.949Z,100073.00
2018-11-07T16:59:06.469Z,100077.00
2018-11-07T17:01:34.611Z,100076.00
2018-11-07T17:04:02.814Z,100083.00
2018-11-07T17:06:31.132Z,100081.00
2018-11-07T17:08:59.533Z,100083.00
2018-11-07T17:11:27.822Z,100093.00
2018-11-07T17:13:56.210Z,100095.00
2018-11-07T17:16:24.549Z,100097.00
2018-11-07T17:18:52.808Z,100122.00
2018-11-07T17:21:21.053Z,100122.00
2018-11-07T17:23:49.259Z,100123.00
2018-11-07T17:26:17.457Z,100134.00
2018-11-07T17:28:48.675Z,100136.00
2018-11-07T17:31:17.010Z,100128.00
2018-11-07T17:33:45.249Z,100127.00
2018-11-07T17:36:13.501Z,100139.00
2018-11-07T17:38:41.730Z,100142.00
2018-11-07T17:41:10.054Z,100155.00
2018-11-07T17:43:38.397Z,100150.00
2018-11-07T17:46:06.916Z,100149.00
2018-11-07T17:48:35.821Z,100159.00
2018-11-07T17:51:04.723Z,100164.00
2018-11-07T17:53:32.962Z,100164.00
2018-11-07T17:56:01.301Z,100166.00
2018-11-07T17:58:29.566Z,100160.00
2018-11-07T18:00:57.951Z,100147.00
2018-11-07T18:03:26.249Z,100155.00
2018-11-07T18:05:54.569Z,100143.00
2018-11-07T18:08:22.838Z,100155.00
2018-11-07T18:10:51.124Z,100163.00
2018-11-07T18:13:19.442Z,100182.00
2018-11-07T18:15:47.806Z,100183.00
2018-11-07T18:18:16.178Z,100203.00
2018-11-07T18:20:44.519Z,100201.00
2018-11-07T18:23:12.775Z,100198.00
2018-11-07T18:25:40.986Z,100216.00
2018-11-07T18:28:09.342Z,100204.00
2018-11-07T18:30:37.590Z,100196.00
2018-11-07T18:33:05.911Z,100198.00
2018-11-07T18:35:34.152Z,100192.00
2018-11-07T18:38:02.562Z,100187.00
2018-11-07T18:40:30.994Z,100182.00
2018-11-07T18:42:59.346Z,100173.00
2018-11-07T18:45:27.494Z,100169.00
2018-11-07T18:47:55.782Z,100181.00
2018-11-07T18:50:24.218Z,100183.00
2018-11-07T18:52:52.320Z,100213.00
2018-11-07T18:55:20.470Z,100231.00
2018-11-07T18:57:48.733Z,100240.00
2018-11-07T19:00:18.311Z,100235.00
2018-11-07T19:02:47.140Z,100240.00
2018-11-07T19:05:15.433Z,100241.00
2018-11-07T19:07:43.865Z,100250.00
2018-11-07T19:10:14.949Z,100251.00
2018-11-07T19:12:43.829Z,100254.00
2018-11-07T19:15:12.934Z,100257.00
2018-11-07T19:17:42.404Z,100255.00
2018-11-07T19:20:12.112Z,100262.00
2018-11-07T19:22:40.853Z,100271.00
2018-11-07T19:25:12.162Z,100272.00
2018-11-07T19:27:40.563Z,100271.00
2018-11-07T19:30:15.615Z,100281.00
2018-11-07T19:32:44.993Z,100278.00
2018-11-07T19:35:14.256Z,100283.00
2018-11-07T19:37:43.089Z,100288.00
2018-11-07T19:40:12.760Z,100286.00
2018-11-07T19:42:41.422Z,100285.00
2018-11-07T19:45:14.101Z,100291.00
2018-11-07T19:47:42.443Z,100283.00
2018-11-07T19:50:12.482Z,100260.00
2018-11-07T19:52:41.063Z,100267.00
2018-11-07T19:55:12.838Z,100264.00
2018-11-07T19:57:42.196Z,100252.00
2018-11-07T20:00:13.743Z,100262.00
2018-11-07T20:02:42.961Z,100257.00
2018-11-07T20:05:11.353Z,100262.00
2018-11-07T20:07:39.743Z,100260.00
2018-11-07T20:10:11.760Z,100266.00
2018-11-07T20:12:40.058Z,100268.00
2018-11-07T20:15:10.312Z,100266.00
2018-11-07T20:17:38.704Z,100286.00
2018-11-07T20:20:07.798Z,100286.00
2018-11-07T20:22:36.045Z,100294.00
2018-11-07T20:25:05.762Z,100304.00
2018-11-07T20:27:34.167Z,100302.00
2018-11-07T20:30:02.716Z,100302.00
2018-11-07T20:32:30.962Z,100304.00
2018-11-07T20:34:59.320Z,100299.00
2018-11-07T20:37:27.643Z,100304.00
2018-11-07T20:39:56.001Z,100302.00
2018-11-07T20:42:24.384Z,100302.00
2018-11-07T20:44:52.794Z,100318.00
2018-11-07T20:47:21.060Z,100314.00
2018-11-07T20:49:49.536Z,100323.00
2018-11-07T20:52:18.152Z,100332.00
2018-11-07T20:54:46.637Z,100330.00
2018-11-07T20:57:15.173Z,100346.00
2018-11-07T20:59:43.559Z,100345.00
2018-11-07T21:02:12.047Z,100340.00
2018-11-07T21:04:40.301Z,100340.00
2018-11-07T21:07:08.554Z,100343.00
2018-11-07T21:09:36.764Z,100350.00
2018-11-07T21:12:05.559Z,100355.00
2018-11-07T21:14:33.893Z,100352.00
2018-11-07T21:17:02.348Z,100354.00
2018-11-07T21:19:30.551Z,100361.00
2018-11-07T21:21:59.679Z,100365.00
2018-11-07T21:24:27.916Z,100373.00
2018-11-07T21:26:56.183Z,100375.00
2018-11-07T21:29:24.301Z,100383.00
2018-11-07T21:31:52.560Z,100381.00
2018-11-07T21:34:20.707Z,100387.00
2018-11-07T21:36:48.838Z,100391.00
2018-11-07T21:39:17.015Z,100395.00
2018-11-07T21:41:45.216Z,100397.00
2018-11-07T21:44:13.544Z,100413.00
2018-11-07T21:46:41.760Z,100396.00
2018-11-07T21:49:10.079Z,100403.00
2018-11-07T21:51:38.405Z,100402.00
2018-11-07T21:54:06.589Z,100395.00
2018-11-07T21:56:34.955Z,100397.00
2018-11-07T21:59:03.212Z,100398.00
2018-11-07T22:01:31.385Z,100415.00
2018-11-07T22:03:59.528Z,100403.00
2018-11-07T22:06:27.746Z,100397.00
2018-11-07T22:08:56.022Z,100399.00
2018-11-07T22:11:24.258Z,100408.00
2018-11-07T22:13:52.396Z,100404.00
2018-11-07T22:16:20.713Z,100408.00
2018-11-07T22:18:48.901Z,100410.00
2018-11-07T22:21:17.434Z,100417.00
2018-11-07T22:23:45.752Z,100415.00
2018-11-07T22:26:14.271Z,100411.00
2018-11-07T22:28:42.418Z,100412.00
2018-11-07T22:31:10.579Z,100413.00
2018-11-07T22:33:38.707Z,100419.00
2018-11-07T22:36:06.974Z,100409.00
2018-11-07T22:38:35.174Z,100415.00
2018-11-07T22:41:03.341Z,100421.00
2018-11-07T22:43:31.519Z,100414.00
2018-11-07T22:45:59.722Z,100423.00
2018-11-07T22:48:27.796Z,100427.00
2018-11-07T22:50:56.001Z,100430.00
2018-11-07T22:53:24.222Z,100429.00
2018-11-07T22:55:52.425Z,100431.00
2018-11-07T22:58:20.594Z,100431.00
2018-11-07T23:00:54.353Z,100428.00
2018-11-07T23:03:22.649Z,100431.00
2018-11-07T23:05:50.887Z,100429.00
2018-11-07T23:08:19.001Z,100426.00
2018-11-07T23:10:47.117Z,100436.00
2018-11-07T23:13:15.236Z,100433.00
2018-11-07T23:15:45.555Z,100437.00
2018-11-07T23:18:14.402Z,100444.00
2018-11-07T23:20:42.675Z,100453.00
2018-11-07T23:23:10.933Z,100450.00
2018-11-07T23:25:39.128Z,100458.00
2018-11-07T23:28:07.324Z,100459.00
2018-11-07T23:30:35.527Z,100462.00
2018-11-07T23:33:03.737Z,100472.00
2018-11-07T23:35:31.916Z,100478.00
2018-11-07T23:38:00.095Z,100480.00
2018-11-07T23:40:28.264Z,100475.00
2018-11-07T23:42:56.382Z,100482.00
2018-11-07T23:45:24.571Z,100477.00
2018-11-07T23:47:52.713Z,100481.00
2018-11-07T23:50:20.965Z,100475.00
2018-11-07T23:52:50.343Z,100484.00
2018-11-07T23:55:19.586Z,100484.00
2018-11-07T23:57:49.192Z,100489.00
